If you wish to contribute or participate in the discussions about articles you are invited to join SKYbrary as a registered user

 Actions

RAF Lakenheath

From SKYbrary Wiki

EGUL
Airport
ICAO: EGUL
Summary
Name RAF Lakenheath
Region Europe
Territory United Kingdom GB.gif
Location Lakenheath, Suffolk, England
Serving
Coordinates 52° 24' 29.69" N, 0° 33' 30.70" E
Runways
Designator Length Width Surface ROPS
6/24 2743 m8,999.344 ft <br /> 46 m150.919 ft <br /> PEM /


METAR
Observation EGUL 170856Z AUTO 27008KT 9999 CLR 03/03 A3014 RMK AO2 SLP210 T00250025 52028 $
Station Lakenheath Royal Air Force Base
Date/Time 17 January 2021 08:56:00
Wind direction 270°
Wind speed 08 kts
Lowest cloud amount n/a
Temperature 2.5°C
Dew point 2.5°C
Humidity 100%
QNH hPa
Weather condition n/a


RAF Lakenheath

ICAO: EGUL IATA: LKZ

Description

Royal Air Force Station Lakenheath, commonly abbreviated to RAF Lakenheath, is a military airbase hosting USAF forces near Lakenheath in Suffolk, England.

Climatology

Temperate Marine climate/Oceanic climate (Köppen climate classification Cfb) - Moderately cool summer and comparatively warm winter.

Maps

Terrain

Loading map...

Airport Layout

Loading map...


Accidents & Serious Incidents at or in vicinity of EGUL

None on SKYbrary